Campina Verde Airport


Codes: SNCV/0
Name: Campina Verde Airport
City: Campina Verde
Country: Brazil
Elevation: 1805 ft.

Photos at Campina Verde Airport


   Photos courtesy of SpottingLog. You can add your own sightings and photos by signing up for a free trial today.



No photos found.

Weather at Campina Verde Airport


Time (UTC)DescriptionTempratureWindCloud coverageVisibilityPressureHumidity
25-Jun-2024 12:00Clear Sky25°C7 mph, NE7%10000m1018hPa38%
25-Jun-2024 15:00Clear Sky27°C4 mph, N6%10000m1018hPa34%
25-Jun-2024 18:00Clear Sky30°C2 mph, E4%10000m1015hPa28%
25-Jun-2024 21:00Few Clouds27°C4 mph, SE11%10000m1014hPa34%
26-Jun-2024 00:00Few Clouds23°C4 mph, NE14%10000m1016hPa45%
26-Jun-2024 03:00Clear Sky22°C4 mph, NE3%10000m1016hPa44%
26-Jun-2024 06:00Clear Sky20°C4 mph, NE2%10000m1016hPa49%
26-Jun-2024 09:00Clear Sky19°C4 mph, NE0%10000m1016hPa51%
26-Jun-2024 12:00Clear Sky26°C7 mph, N0%10000m1017hPa33%
26-Jun-2024 15:00Clear Sky32°C9 mph, N0%10000m1015hPa22%
26-Jun-2024 18:00Clear Sky33°C9 mph, NW0%10000m1012hPa19%
26-Jun-2024 21:00Clear Sky26°C7 mph, NW4%10000m1013hPa28%
27-Jun-2024 00:00Clear Sky23°C2 mph, N6%10000m1014hPa34%
27-Jun-2024 03:00Overcast Clouds22°C4 mph, NE93%10000m1014hPa36%
27-Jun-2024 06:00Broken Clouds19°C4 mph, S51%10000m1014hPa44%
27-Jun-2024 09:00Clear Sky18°C2 mph, SE3%10000m1015hPa57%
27-Jun-2024 12:00Clear Sky24°C4 mph, SE5%10000m1016hPa39%
27-Jun-2024 15:00Few Clouds32°C2 mph, S16%10000m1014hPa26%
27-Jun-2024 18:00Scattered Clouds32°C4 mph, W28%10000m1010hPa22%
27-Jun-2024 21:00Scattered Clouds26°C4 mph, SW34%10000m1011hPa33%
28-Jun-2024 00:00Few Clouds22°C2 mph, N21%10000m1013hPa45%
28-Jun-2024 03:00Scattered Clouds20°C2 mph, E39%10000m1012hPa48%
28-Jun-2024 06:00Few Clouds19°C4 mph, E23%10000m1012hPa51%
28-Jun-2024 09:00Few Clouds19°C4 mph, NE24%10000m1012hPa55%
28-Jun-2024 12:00Scattered Clouds25°C9 mph, NE40%10000m1014hPa36%
28-Jun-2024 15:00Broken Clouds33°C9 mph, N78%10000m1012hPa19%
28-Jun-2024 18:00Broken Clouds34°C13 mph, NW54%10000m1010hPa16%
28-Jun-2024 21:00Overcast Clouds27°C4 mph, NW90%10000m1011hPa25%
29-Jun-2024 00:00Broken Clouds24°C4 mph, NW64%10000m1012hPa29%
29-Jun-2024 03:00Clear Sky21°C2 mph, NE6%10000m1013hPa33%
29-Jun-2024 06:00Clear Sky21°C2 mph, NW4%10000m1013hPa35%
29-Jun-2024 09:00Clear Sky20°C4 mph, N7%10000m1013hPa37%
29-Jun-2024 12:00Clear Sky27°C4 mph, NW9%10000m1015hPa24%
29-Jun-2024 15:00Clear Sky34°C11 mph, NW9%10000m1013hPa15%
29-Jun-2024 18:00Clear Sky35°C11 mph, W6%10000m1010hPa14%
29-Jun-2024 21:00Few Clouds28°C4 mph, N22%10000m1010hPa22%
30-Jun-2024 00:00Broken Clouds27°C4 mph, W51%10000m1013hPa23%
30-Jun-2024 03:00Broken Clouds24°C9 mph, SW73%10000m1014hPa29%
30-Jun-2024 06:00Broken Clouds20°C7 mph, SW82%10000m1014hPa55%
30-Jun-2024 09:00Clear Sky17°C7 mph, SW9%10000m1015hPa73%